createdAt,value
2024-03-07T00:00:34.176Z,51.179260
2024-03-07T00:01:34.168Z,51.179203
2024-03-07T00:02:34.220Z,51.179218
2024-03-07T00:03:34.142Z,51.179230
2024-03-07T00:04:34.140Z,51.179241
2024-03-07T00:05:34.180Z,51.179203
2024-03-07T00:06:34.092Z,51.179199
2024-03-07T00:07:34.131Z,51.179230
2024-03-07T00:08:34.190Z,51.179256
2024-03-07T00:09:34.125Z,51.179272
2024-03-07T00:10:34.091Z,51.179256
2024-03-07T00:11:34.186Z,51.179241
2024-03-07T00:12:34.087Z,51.179230
2024-03-07T00:13:34.086Z,51.179226
2024-03-07T00:15:06.834Z,51.179222
2024-03-07T00:15:34.036Z,51.179256
2024-03-07T00:16:34.026Z,51.179283
2024-03-07T00:17:34.184Z,51.179287
2024-03-07T00:18:34.068Z,51.179195
2024-03-07T00:19:33.979Z,51.179214
2024-03-07T00:20:34.020Z,51.179214
2024-03-07T00:21:33.974Z,51.179264
2024-03-07T00:22:33.959Z,51.179264
2024-03-07T00:23:34.033Z,51.179264
2024-03-07T00:24:33.928Z,51.179279
2024-03-07T00:25:33.909Z,51.179302
2024-03-07T00:26:33.994Z,51.179302
2024-03-07T00:27:33.881Z,51.179291
2024-03-07T00:28:33.983Z,51.179260
2024-03-07T00:29:34.033Z,51.179226
2024-03-07T00:30:33.870Z,51.179211
2024-03-07T00:31:33.875Z,51.179256
2024-03-07T00:32:33.917Z,51.179260
2024-03-07T00:33:50.833Z,51.179218
2024-03-07T00:34:35.899Z,51.179230
2024-03-07T00:35:33.857Z,51.179214
2024-03-07T00:36:33.801Z,51.179253
2024-03-07T00:37:33.849Z,51.179268
2024-03-07T00:38:33.824Z,51.179214
2024-03-07T00:39:33.781Z,51.179207
2024-03-07T00:40:33.779Z,51.179287
2024-03-07T00:41:33.847Z,51.179291
2024-03-07T00:42:33.715Z,51.179279
2024-03-07T00:43:33.716Z,51.179268
2024-03-07T00:44:33.731Z,51.179264
2024-03-07T00:45:33.742Z,51.179245
2024-03-07T00:46:33.686Z,51.179241
2024-03-07T00:47:34.020Z,51.179295
2024-03-07T00:48:33.738Z,51.179245
2024-03-07T00:49:33.670Z,51.179245
2024-03-07T00:50:33.731Z,51.179234
2024-03-07T00:51:33.643Z,51.179234
2024-03-07T00:52:33.660Z,51.179237
2024-03-07T00:53:33.691Z,51.179283
2024-03-07T00:54:33.604Z,51.179237
2024-03-07T00:55:33.608Z,51.179218
2024-03-07T00:56:33.622Z,51.179241
2024-03-07T00:57:33.561Z,51.179222
2024-03-07T00:58:33.611Z,51.179283
2024-03-07T00:59:33.614Z,51.179283
2024-03-07T01:00:33.530Z,51.179214
2024-03-07T01:01:33.558Z,51.179199
2024-03-07T01:02:33.559Z,51.179253
2024-03-07T01:03:33.542Z,51.179256
2024-03-07T01:04:33.552Z,51.179268
2024-03-07T01:05:33.506Z,51.179253
2024-03-07T01:06:33.468Z,51.179230
2024-03-07T01:07:33.476Z,51.179253
2024-03-07T01:08:33.508Z,51.179237
2024-03-07T01:09:33.464Z,51.179222
2024-03-07T01:10:33.475Z,51.179214
2024-03-07T01:11:33.524Z,51.179241
2024-03-07T01:12:35.905Z,51.179230
2024-03-07T01:13:33.409Z,51.179214
2024-03-07T01:14:33.456Z,51.179249
2024-03-07T01:15:33.400Z,51.179241
2024-03-07T01:16:33.378Z,51.179279
2024-03-07T01:17:33.418Z,51.179279
2024-03-07T01:18:34.408Z,51.179253
2024-03-07T01:19:33.331Z,51.179245
2024-03-07T01:20:33.403Z,51.179211
2024-03-07T01:21:35.753Z,51.179253
2024-03-07T01:22:34.309Z,51.179192
2024-03-07T01:23:33.337Z,51.179207
2024-03-07T01:24:33.317Z,51.179249
2024-03-07T01:25:33.295Z,51.179234
2024-03-07T01:26:33.311Z,51.179260
2024-03-07T01:27:33.250Z,51.179241
2024-03-07T01:28:33.245Z,51.179245
2024-03-07T01:29:33.284Z,51.179268
2024-03-07T01:30:33.216Z,51.179234
2024-03-07T01:31:33.200Z,51.179203
2024-03-07T01:32:33.341Z,51.179226
2024-03-07T01:33:33.228Z,51.179207
2024-03-07T01:34:33.210Z,51.179234
2024-03-07T01:35:33.302Z,51.179256
2024-03-07T01:36:33.153Z,51.179268
2024-03-07T01:37:33.141Z,51.179222
2024-03-07T01:38:33.187Z,51.179180
2024-03-07T01:39:33.135Z,51.179169
2024-03-07T01:40:33.150Z,51.179188
2024-03-07T01:41:33.216Z,51.179180
2024-03-07T01:42:33.082Z,51.179180
2024-03-07T01:43:33.090Z,51.179173
2024-03-07T01:44:33.152Z,51.179169
2024-03-07T01:45:33.085Z,51.179188
2024-03-07T01:46:33.031Z,51.179192
2024-03-07T01:47:33.123Z,51.179165
2024-03-07T01:48:33.060Z,51.179173
2024-03-07T01:49:33.014Z,51.179165
2024-03-07T01:50:33.048Z,51.179169
2024-03-07T01:51:32.991Z,51.179184
2024-03-07T01:52:32.998Z,51.179180
2024-03-07T01:53:33.034Z,51.179195
2024-03-07T01:54:33.972Z,51.179199
2024-03-07T01:55:32.962Z,51.179173
2024-03-07T01:56:32.985Z,51.179165
2024-03-07T01:57:32.997Z,51.179207
2024-03-07T01:58:32.928Z,51.179173
2024-03-07T01:59:32.930Z,51.179192
2024-03-07T02:00:32.925Z,51.179226
2024-03-07T02:01:32.895Z,51.179253
2024-03-07T02:02:32.900Z,51.179234
2024-03-07T02:03:32.866Z,51.179214
2024-03-07T02:04:32.860Z,51.179260
2024-03-07T02:05:32.914Z,51.179256
2024-03-07T02:06:32.843Z,51.179256
2024-03-07T02:07:32.813Z,51.179230
2024-03-07T02:08:32.941Z,51.179142
2024-03-07T02:09:32.815Z,51.179153
2024-03-07T02:10:32.807Z,51.179157
2024-03-07T02:11:32.835Z,51.179184
2024-03-07T02:12:32.784Z,51.179234
2024-03-07T02:13:32.776Z,51.179226
2024-03-07T02:14:32.818Z,51.179222
2024-03-07T02:15:32.767Z,51.179192
2024-03-07T02:16:32.757Z,51.179157
2024-03-07T02:17:32.842Z,51.179253
2024-03-07T02:18:32.740Z,51.179234
2024-03-07T02:19:32.734Z,51.179192
2024-03-07T02:20:32.749Z,51.179180
2024-03-07T02:21:32.690Z,51.179226
2024-03-07T02:22:32.701Z,51.179245
2024-03-07T02:23:32.675Z,51.179234
2024-03-07T02:24:32.630Z,51.179241
2024-03-07T02:25:32.666Z,51.179241
2024-03-07T02:26:32.675Z,51.179234
2024-03-07T02:27:32.673Z,51.179176
2024-03-07T02:28:32.593Z,51.179180
2024-03-07T02:29:32.682Z,51.179138
2024-03-07T02:30:32.608Z,51.179226
2024-03-07T02:31:32.564Z,51.179230
2024-03-07T02:32:32.613Z,51.179214
2024-03-07T02:33:32.574Z,51.179176
2024-03-07T02:34:32.549Z,51.179157
2024-03-07T02:35:32.552Z,51.179173
2024-03-07T02:36:32.508Z,51.179161
2024-03-07T02:37:32.510Z,51.179180
2024-03-07T02:38:32.543Z,51.179192
2024-03-07T02:39:32.509Z,51.179237
2024-03-07T02:40:32.467Z,51.179230
2024-03-07T02:41:32.503Z,51.179234
2024-03-07T02:42:32.455Z,51.179241
2024-03-07T02:43:32.447Z,51.179184
2024-03-07T02:44:32.440Z,51.179234
2024-03-07T02:45:32.475Z,51.179276
2024-03-07T02:46:32.406Z,51.179260
2024-03-07T02:47:32.541Z,51.179279
2024-03-07T02:48:32.403Z,51.179314
2024-03-07T02:49:32.418Z,51.179314
2024-03-07T02:50:32.392Z,51.179279
2024-03-07T02:51:32.354Z,51.179199
2024-03-07T02:52:32.353Z,51.179180
2024-03-07T02:53:32.339Z,51.179272
2024-03-07T02:54:32.316Z,51.179283
2024-03-07T02:55:32.335Z,51.179253
2024-03-07T02:56:32.342Z,51.179234
2024-03-07T02:57:32.296Z,51.179245
2024-03-07T02:58:32.285Z,51.179241
2024-03-07T02:59:32.307Z,51.179237
2024-03-07T03:00:32.277Z,51.179245
2024-03-07T03:01:32.290Z,51.179241
2024-03-07T03:02:32.300Z,51.179264
2024-03-07T03:03:32.221Z,51.179241
2024-03-07T03:04:32.221Z,51.179234
2024-03-07T03:05:32.249Z,51.179230
2024-03-07T03:06:32.241Z,51.179211
2024-03-07T03:07:32.194Z,51.179203
2024-03-07T03:08:32.229Z,51.179207
2024-03-07T03:09:32.160Z,51.179249
2024-03-07T03:10:32.280Z,51.179272
2024-03-07T03:11:32.206Z,51.179283
2024-03-07T03:12:32.248Z,51.179302
2024-03-07T03:13:32.137Z,51.179272
2024-03-07T03:14:32.130Z,51.179253
2024-03-07T03:15:32.128Z,51.179264
2024-03-07T03:16:43.588Z,51.179268
2024-03-07T03:17:34.154Z,51.179245
2024-03-07T03:18:32.162Z,51.179245
2024-03-07T03:19:32.099Z,51.179245
2024-03-07T03:20:32.041Z,51.179214
2024-03-07T03:21:32.037Z,51.179188
2024-03-07T03:22:32.038Z,51.179176
2024-03-07T03:23:32.074Z,51.179207
2024-03-07T03:24:32.080Z,51.179249
2024-03-07T03:25:31.991Z,51.179253
2024-03-07T03:26:32.016Z,51.179234
2024-03-07T03:27:31.979Z,51.179203
2024-03-07T03:28:31.987Z,51.179192
2024-03-07T03:29:32.057Z,51.179199
2024-03-07T03:30:31.937Z,51.179211
2024-03-07T03:31:31.929Z,51.179241
2024-03-07T03:32:32.039Z,51.179276
2024-03-07T03:33:31.997Z,51.179272
2024-03-07T03:34:31.937Z,51.179264
2024-03-07T03:35:31.914Z,51.179264
2024-03-07T03:36:31.880Z,51.179306
2024-03-07T03:37:31.881Z,51.179306
2024-03-07T03:38:31.913Z,51.179260
2024-03-07T03:39:31.841Z,51.179222
2024-03-07T03:40:31.848Z,51.179279
2024-03-07T03:41:31.914Z,51.179291
2024-03-07T03:42:31.810Z,51.179272
2024-03-07T03:43:31.962Z,51.179268
2024-03-07T03:44:31.818Z,51.179287
2024-03-07T03:45:31.770Z,51.179279
2024-03-07T03:46:31.787Z,51.179295
2024-03-07T03:47:31.835Z,51.179287
2024-03-07T03:48:31.744Z,51.179287
2024-03-07T03:49:31.768Z,51.179317
2024-03-07T03:50:31.759Z,51.179291
2024-03-07T03:51:31.708Z,51.179272
2024-03-07T03:52:31.701Z,51.179302
2024-03-07T03:53:31.746Z,51.179298
2024-03-07T03:54:31.710Z,51.179260
2024-03-07T03:55:31.663Z,51.179214
2024-03-07T03:56:31.709Z,51.179218
2024-03-07T03:57:31.652Z,51.179218
2024-03-07T03:58:31.649Z,51.179222
2024-03-07T03:59:31.697Z,51.179272
2024-03-07T04:00:31.655Z,51.179268
2024-03-07T04:01:31.627Z,51.179260
2024-03-07T04:02:32.655Z,51.179207
2024-03-07T04:03:31.610Z,51.179165
2024-03-07T04:04:31.578Z,51.179176
2024-03-07T04:05:31.658Z,51.179195
2024-03-07T04:06:31.562Z,51.179218
2024-03-07T04:07:31.544Z,51.179283
2024-03-07T04:08:31.562Z,51.179256
2024-03-07T04:09:31.550Z,51.179241
2024-03-07T04:10:31.519Z,51.179241
2024-03-07T04:11:31.552Z,51.179241
2024-03-07T04:12:31.498Z,51.179241
2024-03-07T04:13:32.471Z,51.179245
2024-03-07T04:14:31.502Z,51.179234
2024-03-07T04:15:33.474Z,51.179214
2024-03-07T04:16:31.448Z,51.179188
2024-03-07T04:17:31.482Z,51.179241
2024-03-07T04:18:31.602Z,51.179241
2024-03-07T04:19:31.430Z,51.179226
2024-03-07T04:20:31.416Z,51.179234
2024-03-07T04:21:31.452Z,51.179253
2024-03-07T04:22:31.396Z,51.179230
2024-03-07T04:23:31.495Z,51.179218
2024-03-07T04:24:31.376Z,51.179234
2024-03-07T04:25:31.404Z,51.179234
2024-03-07T04:26:31.359Z,51.179222
2024-03-07T04:27:31.334Z,51.179245
2024-03-07T04:28:31.348Z,51.179234
2024-03-07T04:29:31.324Z,51.179234
2024-03-07T04:30:31.307Z,51.179237
2024-03-07T04:31:31.305Z,51.179214
2024-03-07T04:32:31.417Z,51.179241
2024-03-07T04:33:31.356Z,51.179241
2024-03-07T04:34:31.311Z,51.179226
2024-03-07T04:35:31.288Z,51.179249
2024-03-07T04:36:31.270Z,51.179199
2024-03-07T04:37:31.256Z,51.179192
2024-03-07T04:38:31.257Z,51.179222
2024-03-07T04:39:31.238Z,51.179180
2024-03-07T04:40:31.205Z,51.179237
2024-03-07T04:41:31.236Z,51.179230
2024-03-07T04:42:31.182Z,51.179195
2024-03-07T04:43:31.214Z,51.179188
2024-03-07T04:44:32.240Z,51.179173
2024-03-07T04:45:31.176Z,51.179192
2024-03-07T04:46:31.126Z,51.179222
2024-03-07T04:47:31.215Z,51.179207
2024-03-07T04:48:31.185Z,51.179218
2024-03-07T04:49:31.125Z,51.179241
2024-03-07T04:50:31.173Z,51.179207
2024-03-07T04:51:31.081Z,51.179184
2024-03-07T04:52:31.085Z,51.179176
2024-03-07T04:53:31.125Z,51.179169
2024-03-07T04:54:31.092Z,51.179199
2024-03-07T04:55:31.051Z,51.179203
2024-03-07T04:56:31.070Z,51.179226
2024-03-07T04:57:31.024Z,51.179249
2024-03-07T04:58:31.025Z,51.179256
2024-03-07T04:59:31.029Z,51.179253
2024-03-07T05:00:31.040Z,51.179241
2024-03-07T05:01:30.979Z,51.179214
2024-03-07T05:02:31.005Z,51.179245
2024-03-07T05:03:30.988Z,51.179253
2024-03-07T05:04:30.978Z,51.179218
2024-03-07T05:05:30.971Z,51.179211
2024-03-07T05:06:30.947Z,51.179176
2024-03-07T05:07:30.926Z,51.179195
2024-03-07T05:08:30.952Z,51.179218
2024-03-07T05:09:30.922Z,51.179218
2024-03-07T05:10:30.944Z,51.179230
2024-03-07T05:11:30.945Z,51.179230
2024-03-07T05:12:30.873Z,51.179218
2024-03-07T05:13:30.878Z,51.179211
2024-03-07T05:14:30.894Z,51.179241
2024-03-07T05:15:30.835Z,51.179234
2024-03-07T05:16:30.847Z,51.179241
2024-03-07T05:17:30.903Z,51.179249
2024-03-07T05:18:30.860Z,51.179276
2024-03-07T05:19:30.829Z,51.179256
2024-03-07T05:20:30.779Z,51.179226
2024-03-07T05:21:30.778Z,51.179207
2024-03-07T05:22:30.795Z,51.179218
2024-03-07T05:23:30.807Z,51.179245
2024-03-07T05:24:30.732Z,51.179279
2024-03-07T05:25:30.781Z,51.179268
2024-03-07T05:26:30.757Z,51.179241
2024-03-07T05:27:30.726Z,51.179245
2024-03-07T05:28:30.755Z,51.179272
2024-03-07T05:29:30.714Z,51.179256
2024-03-07T05:30:30.706Z,51.179241
2024-03-07T05:31:30.704Z,51.179230
2024-03-07T05:32:30.741Z,51.179230
2024-03-07T05:33:30.742Z,51.179222
2024-03-07T05:34:30.683Z,51.179234
2024-03-07T05:35:30.780Z,51.179192
2024-03-07T05:36:30.620Z,51.179199
2024-03-07T05:37:30.631Z,51.179192
2024-03-07T05:38:30.673Z,51.179203
2024-03-07T05:39:30.595Z,51.179211
2024-03-07T05:40:30.587Z,51.179195
2024-03-07T05:41:30.608Z,51.179214
2024-03-07T05:42:30.569Z,51.179214
2024-03-07T05:43:30.559Z,51.179207
2024-03-07T05:44:30.587Z,51.179203
2024-03-07T05:45:30.555Z,51.179226
2024-03-07T05:46:30.527Z,51.179203
2024-03-07T05:47:30.648Z,51.179249
2024-03-07T05:48:30.551Z,51.179260
2024-03-07T05:49:30.501Z,51.179256
2024-03-07T05:50:30.533Z,51.179234
2024-03-07T05:51:30.457Z,51.179234
2024-03-07T05:52:30.463Z,51.179207
2024-03-07T05:53:30.457Z,51.179253
2024-03-07T05:54:30.427Z,51.179253
2024-03-07T05:55:30.435Z,51.179260
2024-03-07T05:56:30.495Z,51.179226
2024-03-07T05:57:30.411Z,51.179245
2024-03-07T05:58:30.416Z,51.179264
2024-03-07T05:59:30.418Z,51.179256
2024-03-07T06:00:30.411Z,51.179207
2024-03-07T06:01:30.363Z,51.179192
2024-03-07T06:02:30.363Z,51.179211
2024-03-07T06:03:30.350Z,51.179211
2024-03-07T06:04:30.372Z,51.179226
2024-03-07T06:05:30.369Z,51.179279
2024-03-07T06:06:30.320Z,51.179253
2024-03-07T06:07:30.323Z,51.179222
2024-03-07T06:08:30.335Z,51.179230
2024-03-07T06:09:30.278Z,51.179222
2024-03-07T06:10:30.327Z,51.179237
2024-03-07T06:11:30.357Z,51.179253
2024-03-07T06:12:30.258Z,51.179260
2024-03-07T06:13:31.269Z,51.179287
2024-03-07T06:14:30.269Z,51.179295
2024-03-07T06:16:02.152Z,51.179291
2024-03-07T06:16:30.232Z,51.179264
2024-03-07T06:17:30.285Z,51.179264
2024-03-07T06:18:30.217Z,51.179264
2024-03-07T06:19:30.208Z,51.179211
2024-03-07T06:20:30.214Z,51.179249
2024-03-07T06:21:31.166Z,51.179272
2024-03-07T06:22:30.153Z,51.179279
2024-03-07T06:23:30.256Z,51.179234
2024-03-07T06:24:30.122Z,51.179184
2024-03-07T06:25:30.116Z,51.179222
2024-03-07T06:26:30.134Z,51.179234
2024-03-07T06:27:30.092Z,51.179230
2024-03-07T06:28:30.082Z,51.179245
2024-03-07T06:29:30.173Z,51.179222
2024-03-07T06:30:30.048Z,51.179211
2024-03-07T06:31:30.054Z,51.179199
2024-03-07T06:32:30.236Z,51.179192
2024-03-07T06:33:30.065Z,51.179165
2024-03-07T06:34:30.037Z,51.179195
2024-03-07T06:35:30.102Z,51.179192
2024-03-07T06:36:30.004Z,51.179237
2024-03-07T06:37:29.997Z,51.179207
2024-03-07T06:38:30.001Z,51.179195
2024-03-07T06:39:30.022Z,51.179237
2024-03-07T06:40:32.679Z,51.179214
2024-03-07T06:41:31.025Z,51.179214
2024-03-07T06:42:30.035Z,51.179241
2024-03-07T06:43:29.930Z,51.179253
2024-03-07T06:44:29.961Z,51.179260
2024-03-07T06:45:29.943Z,51.179241
2024-03-07T06:46:29.884Z,51.179234
2024-03-07T06:47:29.902Z,51.179237
2024-03-07T06:48:30.165Z,51.179249
2024-03-07T06:49:29.885Z,51.179256
2024-03-07T06:50:33.413Z,51.179302
2024-03-07T06:51:31.887Z,51.179260
2024-03-07T06:52:29.847Z,51.179249
2024-03-07T06:53:29.826Z,51.179234
2024-03-07T06:54:30.842Z,51.179237
2024-03-07T06:55:29.816Z,51.179256
2024-03-07T06:56:29.815Z,51.179226
2024-03-07T06:57:29.776Z,51.179207
2024-03-07T06:58:32.705Z,51.179214
2024-03-07T06:59:30.825Z,51.179214
2024-03-07T07:00:29.732Z,51.179207
2024-03-07T07:01:29.776Z,51.179230
2024-03-07T07:02:29.735Z,51.179272
2024-03-07T07:03:29.742Z,51.179253
2024-03-07T07:04:29.702Z,51.179237
2024-03-07T07:05:29.727Z,51.179268
2024-03-07T07:06:29.692Z,51.179325
2024-03-07T07:07:29.643Z,51.179329
2024-03-07T07:08:29.675Z,51.179268
2024-03-07T07:09:29.673Z,51.179249
2024-03-07T07:10:29.683Z,51.179245
2024-03-07T07:11:32.770Z,51.179241
2024-03-07T07:12:31.679Z,51.179268
2024-03-07T07:13:29.648Z,51.179287
2024-03-07T07:14:29.629Z,51.179260
2024-03-07T07:15:29.597Z,51.179234
2024-03-07T07:16:29.595Z,51.179264
2024-03-07T07:17:29.593Z,51.179268
2024-03-07T07:18:29.650Z,51.179241
2024-03-07T07:19:29.583Z,51.179237
2024-03-07T07:20:29.583Z,51.179226
2024-03-07T07:21:29.527Z,51.179192
2024-03-07T07:22:30.203Z,51.179222
2024-03-07T07:23:29.566Z,51.179253
2024-03-07T07:24:29.465Z,51.179241
2024-03-07T07:25:29.518Z,51.179230
2024-03-07T07:26:29.498Z,51.179253
2024-03-07T07:27:29.443Z,51.179268
2024-03-07T07:28:29.467Z,51.179230
2024-03-07T07:29:29.485Z,51.179222
2024-03-07T07:30:29.450Z,51.179234
2024-03-07T07:31:29.393Z,51.179226
2024-03-07T07:32:29.527Z,51.179253
2024-03-07T07:33:29.744Z,51.179264
2024-03-07T07:34:29.387Z,51.179234
2024-03-07T07:35:29.465Z,51.179234
2024-03-07T07:36:31.450Z,51.179253
2024-03-07T07:37:30.336Z,51.179237
2024-03-07T07:38:29.372Z,51.179222
2024-03-07T07:39:29.339Z,51.179234
2024-03-07T07:40:29.385Z,51.179218
2024-03-07T07:41:29.329Z,51.179211
2024-03-07T07:42:29.305Z,51.179222
2024-03-07T07:43:37.722Z,51.179237
2024-03-07T07:44:30.287Z,51.179241
2024-03-07T07:45:29.323Z,51.179264
2024-03-07T07:46:29.272Z,51.179245
2024-03-07T07:47:29.371Z,51.179226
2024-03-07T07:48:29.317Z,51.179222
2024-03-07T07:49:29.275Z,51.179222
2024-03-07T07:50:29.351Z,51.179226
2024-03-07T07:51:29.208Z,51.179226
2024-03-07T07:52:29.240Z,51.179241
2024-03-07T07:53:29.247Z,51.179226
2024-03-07T07:54:29.209Z,51.179230
2024-03-07T07:55:29.160Z,51.179234
2024-03-07T07:56:29.225Z,51.179253
2024-03-07T07:57:29.138Z,51.179264
2024-03-07T07:58:29.181Z,51.179264
2024-03-07T07:59:29.175Z,51.179264
2024-03-07T08:00:29.229Z,51.179256
2024-03-07T08:01:29.121Z,51.179237
2024-03-07T08:02:29.138Z,51.179237
2024-03-07T08:03:29.114Z,51.179214
2024-03-07T08:04:29.066Z,51.179218
2024-03-07T08:05:29.333Z,51.179222
2024-03-07T08:06:29.065Z,51.179222
2024-03-07T08:07:29.033Z,51.179249
2024-03-07T08:08:29.083Z,51.179264
2024-03-07T08:09:29.075Z,51.179260
2024-03-07T08:10:29.048Z,51.179234
2024-03-07T08:11:29.034Z,51.179222
2024-03-07T08:12:29.052Z,51.179203
2024-03-07T08:13:28.977Z,51.179230
2024-03-07T08:14:29.002Z,51.179256
2024-03-07T08:15:29.154Z,51.179302
2024-03-07T08:16:28.958Z,51.179264
2024-03-07T08:17:28.983Z,51.179245
2024-03-07T08:18:29.066Z,51.179237
2024-03-07T08:19:28.953Z,51.179234
2024-03-07T08:20:28.987Z,51.179249
2024-03-07T08:21:28.966Z,51.179230
2024-03-07T08:22:28.903Z,51.179230
2024-03-07T08:23:28.892Z,51.179222
2024-03-07T08:24:28.881Z,51.179222
2024-03-07T08:25:28.893Z,51.179230
2024-03-07T08:26:28.889Z,51.179214
2024-03-07T08:27:28.857Z,51.179222
2024-03-07T08:28:28.854Z,51.179222
2024-03-07T08:29:28.872Z,51.179249
2024-03-07T08:30:28.812Z,51.179234
2024-03-07T08:31:28.841Z,51.179264
2024-03-07T08:32:28.856Z,51.179237
2024-03-07T08:33:28.889Z,51.179222
2024-03-07T08:34:28.779Z,51.179222
2024-03-07T08:35:28.808Z,51.179214
2024-03-07T08:36:28.732Z,51.179214
2024-03-07T08:37:28.783Z,51.179253
2024-03-07T08:38:28.767Z,51.179272
2024-03-07T08:39:28.701Z,51.179272
2024-03-07T08:40:29.827Z,51.179276
2024-03-07T08:41:28.741Z,51.179245
2024-03-07T08:42:28.694Z,51.179249
2024-03-07T08:43:28.680Z,51.179222
2024-03-07T08:44:28.664Z,51.179203
2024-03-07T08:45:28.703Z,51.179203
2024-03-07T08:46:28.666Z,51.179245
2024-03-07T08:47:28.652Z,51.179264
2024-03-07T08:48:28.716Z,51.179230
2024-03-07T08:49:28.637Z,51.179161
2024-03-07T08:50:28.803Z,51.179188
2024-03-07T08:51:28.585Z,51.179207
2024-03-07T08:52:28.611Z,51.179214
2024-03-07T08:53:28.623Z,51.179245
2024-03-07T08:54:28.562Z,51.179222
2024-03-07T08:55:28.604Z,51.179203
2024-03-07T08:56:28.651Z,51.179226
2024-03-07T08:57:28.520Z,51.179226
2024-03-07T08:58:28.533Z,51.179237
2024-03-07T08:59:28.549Z,51.179249
2024-03-07T09:00:28.813Z,51.179268
2024-03-07T09:01:28.536Z,51.179268
2024-03-07T09:02:28.492Z,51.179245
2024-03-07T09:03:28.456Z,51.179241
2024-03-07T09:04:28.476Z,51.179226
2024-03-07T09:05:28.564Z,51.179150
2024-03-07T09:06:28.458Z,51.179226
2024-03-07T09:07:28.427Z,51.179165
2024-03-07T09:08:30.762Z,51.179184
2024-03-07T09:09:29.531Z,51.179211
2024-03-07T09:10:28.403Z,51.179188
2024-03-07T09:11:28.494Z,51.179226
2024-03-07T09:12:28.446Z,51.179321
2024-03-07T09:13:28.360Z,51.179218
2024-03-07T09:14:28.395Z,51.179207
2024-03-07T09:15:28.680Z,51.179230
2024-03-07T09:16:28.352Z,51.179268
2024-03-07T09:17:28.428Z,51.179222
2024-03-07T09:18:28.408Z,51.179203
2024-03-07T09:19:28.364Z,51.179188
2024-03-07T09:20:28.562Z,51.179214
2024-03-07T09:21:28.273Z,51.179199
2024-03-07T09:22:28.290Z,51.179134
2024-03-07T09:23:28.338Z,51.179173
2024-03-07T09:24:28.302Z,51.179173
2024-03-07T09:25:28.300Z,51.179192
2024-03-07T09:26:28.316Z,51.179203
2024-03-07T09:27:28.210Z,51.179150
2024-03-07T09:28:28.205Z,51.179108
2024-03-07T09:29:28.261Z,51.179356
2024-03-07T09:30:28.289Z,51.179340
2024-03-07T09:31:29.197Z,51.179279
2024-03-07T09:32:28.297Z,51.179245
2024-03-07T09:33:29.671Z,51.179314
2024-03-07T09:34:29.192Z,51.179272
2024-03-07T09:35:28.312Z,51.179260
2024-03-07T09:36:28.150Z,51.179264
2024-03-07T09:37:28.112Z,51.179279
2024-03-07T09:38:28.184Z,51.179241
2024-03-07T09:39:28.122Z,51.179226
2024-03-07T09:40:28.632Z,51.179241
2024-03-07T09:41:28.130Z,51.179245
2024-03-07T09:42:28.085Z,51.179211
2024-03-07T09:43:29.056Z,51.179222
2024-03-07T09:44:28.134Z,51.179173
2024-03-07T09:45:28.060Z,51.179218
2024-03-07T09:46:28.034Z,51.179241
2024-03-07T09:47:28.028Z,51.179260
2024-03-07T09:48:28.154Z,51.179283
2024-03-07T09:49:28.018Z,51.179279
2024-03-07T09:50:28.020Z,51.179222
2024-03-07T09:51:27.957Z,51.179241
2024-03-07T09:52:27.998Z,51.179260
2024-03-07T09:53:27.984Z,51.179226
2024-03-07T09:54:27.993Z,51.179222
2024-03-07T09:55:28.409Z,51.179230
2024-03-07T09:56:28.046Z,51.179218
2024-03-07T09:57:27.968Z,51.179211
2024-03-07T09:58:27.921Z,51.179226
2024-03-07T09:59:27.957Z,51.179184
2024-03-07T10:00:29.319Z,51.179226
2024-03-07T10:01:27.879Z,51.179241
2024-03-07T10:02:27.892Z,51.179226
2024-03-07T10:03:27.894Z,51.179260
2024-03-07T10:04:27.842Z,51.179180
2024-03-07T10:05:27.991Z,51.179203
2024-03-07T10:06:27.834Z,51.179192
2024-03-07T10:07:27.810Z,51.179173
2024-03-07T10:08:27.923Z,51.179184
2024-03-07T10:09:27.816Z,51.179207
2024-03-07T10:10:28.088Z,51.179180
2024-03-07T10:11:27.930Z,51.179207
2024-03-07T10:12:27.853Z,51.179218
2024-03-07T10:13:27.805Z,51.179226
2024-03-07T10:14:27.804Z,51.179169
2024-03-07T10:15:27.751Z,51.179180
2024-03-07T10:16:27.748Z,51.179218
2024-03-07T10:17:27.801Z,51.179222
2024-03-07T10:18:27.790Z,51.179234
2024-03-07T10:19:27.733Z,51.179157
2024-03-07T10:20:27.781Z,51.179211
2024-03-07T10:21:27.665Z,51.179199
2024-03-07T10:22:27.681Z,51.179268
2024-03-07T10:23:27.725Z,51.179268
2024-03-07T10:24:27.679Z,51.179245
2024-03-07T10:25:28.077Z,51.179199
2024-03-07T10:26:27.644Z,51.179249
2024-03-07T10:27:27.658Z,51.179260
2024-03-07T10:28:27.604Z,51.179218
2024-03-07T10:29:27.673Z,51.179203
2024-03-07T10:30:27.637Z,51.179245
2024-03-07T10:31:27.601Z,51.179230
2024-03-07T10:32:27.571Z,51.179245
2024-03-07T10:33:27.621Z,51.179264
2024-03-07T10:34:27.576Z,51.179276
2024-03-07T10:35:27.596Z,51.179245
2024-03-07T10:36:27.573Z,51.179222
2024-03-07T10:37:27.515Z,51.179218
2024-03-07T10:38:28.563Z,51.179195
2024-03-07T10:39:27.522Z,51.179150
2024-03-07T10:40:27.497Z,51.179184
2024-03-07T10:41:27.490Z,51.179211
2024-03-07T10:42:27.490Z,51.179230
2024-03-07T10:43:27.487Z,51.179256
2024-03-07T10:44:27.440Z,51.179230
2024-03-07T10:45:27.495Z,51.179230
2024-03-07T10:46:27.442Z,51.179241
2024-03-07T10:47:27.431Z,51.179211
2024-03-07T10:48:27.447Z,51.179207
2024-03-07T10:49:27.403Z,51.179214
2024-03-07T10:50:27.414Z,51.179234
2024-03-07T10:51:27.371Z,51.179222
2024-03-07T10:52:27.370Z,51.179214
2024-03-07T10:53:27.505Z,51.179211
2024-03-07T10:54:27.376Z,51.179180
2024-03-07T10:55:27.310Z,51.179192
2024-03-07T10:56:27.331Z,51.179226
2024-03-07T10:57:27.326Z,51.179214
2024-03-07T10:58:27.303Z,51.179195
2024-03-07T10:59:27.273Z,51.179226
2024-03-07T11:00:27.301Z,51.179165
2024-03-07T11:01:27.410Z,51.179169
2024-03-07T11:02:27.279Z,51.179176
2024-03-07T11:03:27.270Z,51.179199
2024-03-07T11:04:28.061Z,51.179192
2024-03-07T11:05:27.251Z,51.179222
2024-03-07T11:06:27.225Z,51.179218
2024-03-07T11:07:27.214Z,51.179199
2024-03-07T11:08:28.041Z,51.179199
2024-03-07T11:09:27.209Z,51.179211
2024-03-07T11:10:27.163Z,51.179199
2024-03-07T11:11:27.186Z,51.179173
2024-03-07T11:12:28.150Z,51.179173
2024-03-07T11:13:27.152Z,51.179184
2024-03-07T11:14:27.160Z,51.179234
2024-03-07T11:15:27.136Z,51.179276
2024-03-07T11:16:27.117Z,51.179272
2024-03-07T11:17:27.132Z,51.179226
2024-03-07T11:18:27.143Z,51.179260
2024-03-07T11:19:27.099Z,51.179268
2024-03-07T11:20:27.113Z,51.179264
2024-03-07T11:21:27.084Z,51.179237
2024-03-07T11:22:27.059Z,51.179245
2024-03-07T11:23:27.059Z,51.179241
2024-03-07T11:24:27.054Z,51.179268